Perryville, Missouri
Current Conditions -  °F | °C
As of 3:35 AM on Thursday 18 Dec 2014 (Local Time) from KSAR Reporting Station
Light Snow Light Snow  
Wind Chill: 25°   Ceiling: 5500
Heat Index: 30°   Visibility: 7mi
Dew Point: 28°   Wind: 5mph
Humidity: 90%   Direction: 80°E
Pressure: 30.28"   Gusts: NA
Location:  37.73°N, 89.86°W
Report Text: KSAR 180935Z AUTO 08004KT 7SM -SN SCT044 OVC055 M01/M02 A3028 RMK AO2 T10101024
Loading
Personal Weather Stations






























Interactive Weather Map New forecast layout! Learn more

10-Day Weather Forecast

Advertisements
Track Severe Weather on mobile